PWSweather.com
Personal Weather Stations
Station Observations
UPSTATEWEATHER
Silver Leaf, Greer, SC 29650

Silver LeafGreer, SC 29650

Lat: 34.8955792, Lon: -82.2868211

Elevation: 875

Station Type: Davis Vantage Vue

https://www.upstateweather.com

High Low Average
Temperature 88.1°F31.2°C 67.8°F19.9°C 75.4°F24.1°C
Dew Point 75.0°F23.9°C 66.6°F19.2°C 69.9°F21.1°C
Winds 1.2 mph 1.9 kmh Calm Calm Calm Calm
Wind Gusts 2.3 mph3.7 kmh -- --
Humidity 98% 57% 85%
Pressure 30.09 in1019.0 mb 29.98 in1015.2 mb -
Precipitation 0.15 in3.8 mm - -
Hour Temp Dew Point Humidity Winds Wind Gusts Pressure Precip Precip Rate Daily Precip Total
12:00 AM 73.1°F22.8°C 69.0°F20.6°C 87% Calm Calm -- 30.06 in1017.9 mb - 0.00 in0.0 mm 0.00 in0.0 mm
12:15 AM 72.4°F22.4°C 68.6°F20.3°C 88% Calm Calm -- 30.06 in1017.9 mb - 0.00 in0.0 mm 0.00 in0.0 mm
12:30 AM 71.9°F22.2°C 68.8°F20.4°C 90% Calm Calm -- 30.06 in1017.9 mb - 0.00 in0.0 mm 0.00 in0.0 mm
12:45 AM 71.7°F22.1°C 68.6°F20.3°C 90% Calm Calm -- 30.06 in1017.9 mb - 0.00 in0.0 mm 0.00 in0.0 mm
01:00 AM 71.4°F21.9°C 68.6°F20.3°C 91% Calm Calm -- 30.05 in1017.6 mb - 0.00 in0.0 mm 0.00 in0.0 mm
01:15 AM 71.1°F21.7°C 68.7°F20.4°C 92% Calm Calm -- 30.06 in1017.9 mb - 0.00 in0.0 mm 0.00 in0.0 mm
01:30 AM 71.1°F21.7°C 68.7°F20.4°C 92% Calm Calm -- 30.06 in1017.9 mb - 0.00 in0.0 mm 0.00 in0.0 mm
01:45 AM 71.1°F21.7°C 69.0°F20.6°C 93% Calm Calm -- 30.05 in1017.6 mb - 0.00 in0.0 mm 0.00 in0.0 mm
02:00 AM 70.6°F21.4°C 68.5°F20.3°C 93% Calm Calm -- 30.05 in1017.6 mb - 0.00 in0.0 mm 0.00 in0.0 mm
02:15 AM 70.3°F21.3°C 68.2°F20.1°C 93% Calm Calm -- 30.05 in1017.6 mb - 0.00 in0.0 mm 0.00 in0.0 mm
02:30 AM 70.0°F21.1°C 68.2°F20.1°C 94% Calm Calm -- 30.04 in1017.3 mb - 0.00 in0.0 mm 0.00 in0.0 mm
02:45 AM 69.8°F21.0°C 68.0°F20.0°C 94% Calm Calm -- 30.04 in1017.3 mb - 0.00 in0.0 mm 0.00 in0.0 mm
03:00 AM 69.4°F20.8°C 67.9°F19.9°C 95% Calm Calm -- 30.04 in1017.3 mb - 0.00 in0.0 mm 0.00 in0.0 mm
03:15 AM 69.3°F20.7°C 67.8°F19.9°C 95% Calm Calm -- 30.04 in1017.3 mb - 0.00 in0.0 mm 0.00 in0.0 mm
03:30 AM 69.1°F20.6°C 67.7°F19.8°C 95% Calm Calm -- 30.04 in1017.3 mb - 0.00 in0.0 mm 0.00 in0.0 mm
03:45 AM 68.9°F20.5°C 67.4°F19.7°C 95% Calm Calm -- 30.04 in1017.3 mb - 0.00 in0.0 mm 0.00 in0.0 mm
04:00 AM 68.7°F20.4°C 67.2°F19.6°C 95% Calm Calm -- 30.03 in1016.9 mb - 0.00 in0.0 mm 0.00 in0.0 mm
04:15 AM 68.5°F20.3°C 67.0°F19.4°C 95% Calm Calm -- 30.04 in1017.3 mb - 0.00 in0.0 mm 0.00 in0.0 mm
04:30 AM 68.4°F20.2°C 66.9°F19.4°C 95% Calm Calm -- 30.04 in1017.3 mb - 0.00 in0.0 mm 0.00 in0.0 mm
04:45 AM 68.3°F20.2°C 66.8°F19.3°C 95% Calm Calm -- 30.04 in1017.3 mb - 0.00 in0.0 mm 0.00 in0.0 mm
05:00 AM 68.2°F20.1°C 66.7°F19.3°C 95% Calm Calm -- 30.04 in1017.3 mb - 0.00 in0.0 mm 0.00 in0.0 mm
05:15 AM 68.1°F20.1°C 66.6°F19.2°C 95% Calm Calm -- 30.05 in1017.6 mb - 0.00 in0.0 mm 0.00 in0.0 mm
05:30 AM 67.8°F19.9°C 66.6°F19.2°C 96% Calm Calm -- 30.05 in1017.6 mb - 0.00 in0.0 mm 0.00 in0.0 mm
05:45 AM 67.8°F19.9°C 66.6°F19.2°C 96% Calm Calm -- 30.06 in1017.9 mb - 0.00 in0.0 mm 0.00 in0.0 mm
06:00 AM 67.9°F19.9°C 66.7°F19.3°C 96% Calm Calm -- 30.06 in1017.9 mb - 0.00 in0.0 mm 0.00 in0.0 mm
06:15 AM 68.0°F20.0°C 66.8°F19.3°C 96% Calm Calm -- 30.07 in1018.3 mb - 0.00 in0.0 mm 0.00 in0.0 mm
06:30 AM 68.0°F20.0°C 66.8°F19.3°C 96% Calm Calm -- 30.08 in1018.6 mb - 0.00 in0.0 mm 0.00 in0.0 mm
06:45 AM 68.3°F20.2°C 67.2°F19.6°C 96% Calm Calm -- 30.07 in1018.3 mb - 0.00 in0.0 mm 0.00 in0.0 mm
07:00 AM 68.8°F20.4°C 67.6°F19.8°C 96% Calm Calm -- 30.07 in1018.3 mb - 0.00 in0.0 mm 0.00 in0.0 mm
07:15 AM 69.5°F20.8°C 68.3°F20.2°C 96% Calm Calm -- 30.08 in1018.6 mb - 0.00 in0.0 mm 0.00 in0.0 mm
07:30 AM 70.4°F21.3°C 69.2°F20.7°C 96% Calm Calm -- 30.08 in1018.6 mb - 0.00 in0.0 mm 0.00 in0.0 mm
07:45 AM 71.7°F22.1°C 70.2°F21.2°C 95% Calm Calm -- 30.08 in1018.6 mb - 0.00 in0.0 mm 0.00 in0.0 mm
08:00 AM 73.6°F23.1°C 71.5°F21.9°C 93% Calm Calm -- 30.08 in1018.6 mb - 0.00 in0.0 mm 0.00 in0.0 mm
08:15 AM 76.9°F24.9°C 73.1°F22.8°C 88% Calm Calm -- 30.08 in1018.6 mb - 0.00 in0.0 mm 0.00 in0.0 mm
08:30 AM 80.2°F26.8°C 75.0°F23.9°C 84% Calm Calm -- 30.08 in1018.6 mb - 0.00 in0.0 mm 0.00 in0.0 mm
08:45 AM 80.2°F26.8°C 74.2°F23.4°C 82% Calm Calm -- 30.08 in1018.6 mb - 0.00 in0.0 mm 0.00 in0.0 mm
09:00 AM 81.3°F27.4°C 74.2°F23.4°C 79% Calm Calm -- 30.08 in1018.6 mb - 0.00 in0.0 mm 0.00 in0.0 mm
09:15 AM 81.4°F27.4°C 72.7°F22.6°C 75% Calm Calm -- 30.08 in1018.6 mb - 0.00 in0.0 mm 0.00 in0.0 mm
09:30 AM 82.4°F28.0°C 73.7°F23.2°C 75% Calm Calm -- 30.08 in1018.6 mb - 0.00 in0.0 mm 0.00 in0.0 mm
09:45 AM 83.0°F28.3°C 73.9°F23.3°C 74% Calm Calm -- 30.08 in1018.6 mb - 0.00 in0.0 mm 0.00 in0.0 mm
10:00 AM 83.9°F28.8°C 74.3°F23.5°C 73% 1.2 mph N1.9 kmh N 1.2 mph1.9 kmh 30.08 in1018.6 mb - 0.00 in0.0 mm 0.00 in0.0 mm
10:15 AM 84.1°F28.9°C 74.5°F23.6°C 73% Calm Calm -- 30.08 in1018.6 mb - 0.00 in0.0 mm 0.00 in0.0 mm
10:30 AM 83.4°F28.6°C 74.7°F23.7°C 75% Calm Calm -- 30.09 in1019.0 mb - 0.00 in0.0 mm 0.00 in0.0 mm
10:45 AM 84.1°F28.9°C 72.8°F22.7°C 69% Calm Calm 1.2 mph1.9 kmh 30.09 in1019.0 mb - 0.00 in0.0 mm 0.00 in0.0 mm
11:00 AM 85.2°F29.6°C 72.1°F22.3°C 65% Calm Calm 1.2 mph1.9 kmh 30.09 in1019.0 mb - 0.00 in0.0 mm 0.00 in0.0 mm
11:15 AM 86.5°F30.3°C 71.9°F22.2°C 62% Calm Calm -- 30.08 in1018.6 mb - 0.00 in0.0 mm 0.00 in0.0 mm
11:30 AM 86.5°F30.3°C 71.9°F22.2°C 62% Calm Calm 1.2 mph1.9 kmh 30.08 in1018.6 mb - 0.00 in0.0 mm 0.00 in0.0 mm
11:45 AM 87.0°F30.6°C 71.4°F21.9°C 60% 1.2 mph N1.9 kmh N 2.3 mph3.7 kmh 30.07 in1018.3 mb - 0.00 in0.0 mm 0.00 in0.0 mm
12:00 PM 87.5°F30.8°C 72.9°F22.7°C 62% Calm Calm -- 30.07 in1018.3 mb - 0.00 in0.0 mm 0.00 in0.0 mm
12:15 PM 87.4°F30.8°C 70.3°F21.3°C 57% Calm Calm -- 30.06 in1017.9 mb - 0.00 in0.0 mm 0.00 in0.0 mm
12:30 PM 88.1°F31.2°C 72.0°F22.2°C 59% 1.2 mph N1.9 kmh N 2.3 mph3.7 kmh 30.05 in1017.6 mb - 0.00 in0.0 mm 0.00 in0.0 mm
12:45 PM 87.1°F30.6°C 73.4°F23.0°C 64% 1.2 mph 1.9 kmh 1.2 mph1.9 kmh 30.04 in1017.3 mb - 0.00 in0.0 mm 0.00 in0.0 mm
01:00 PM 88.0°F31.1°C 72.9°F22.7°C 61% Calm Calm -- 30.03 in1016.9 mb - 0.00 in0.0 mm 0.00 in0.0 mm
01:15 PM 87.9°F31.1°C 73.7°F23.2°C 63% Calm Calm -- 30.02 in1016.6 mb - 0.00 in0.0 mm 0.00 in0.0 mm
01:30 PM 88.1°F31.2°C 74.8°F23.8°C 65% Calm Calm -- 30.02 in1016.6 mb - 0.00 in0.0 mm 0.00 in0.0 mm
01:45 PM 87.3°F30.7°C 74.1°F23.4°C 65% Calm Calm -- 30.02 in1016.6 mb - 0.00 in0.0 mm 0.00 in0.0 mm
02:00 PM 86.6°F30.3°C 73.9°F23.3°C 66% Calm Calm -- 30.01 in1016.3 mb - 0.00 in0.0 mm 0.00 in0.0 mm
02:15 PM 86.4°F30.2°C 73.7°F23.2°C 66% Calm Calm -- 30.00 in1015.9 mb - 0.00 in0.0 mm 0.00 in0.0 mm
02:30 PM 85.9°F29.9°C 74.5°F23.6°C 69% Calm Calm -- 30.00 in1015.9 mb - 0.00 in0.0 mm 0.00 in0.0 mm
02:45 PM 85.4°F29.7°C 74.1°F23.4°C 69% Calm Calm -- 29.98 in1015.2 mb - 0.00 in0.0 mm 0.00 in0.0 mm
03:00 PM 86.2°F30.1°C 71.7°F22.1°C 62% Calm Calm 1.2 mph1.9 kmh 29.98 in1015.2 mb - 0.00 in0.0 mm 0.00 in0.0 mm
03:15 PM 85.9°F29.9°C 71.4°F21.9°C 62% 1.2 mph 1.9 kmh 2.3 mph3.7 kmh 29.98 in1015.2 mb - 0.00 in0.0 mm 0.00 in0.0 mm
03:30 PM 85.4°F29.7°C 72.8°F22.7°C 66% 1.2 mph 1.9 kmh 1.2 mph1.9 kmh 29.99 in1015.6 mb - 0.00 in0.0 mm 0.00 in0.0 mm
03:45 PM 85.7°F29.8°C 72.2°F22.3°C 64% Calm Calm -- 29.98 in1015.2 mb - 0.00 in0.0 mm 0.00 in0.0 mm
04:00 PM 85.7°F29.8°C 73.4°F23.0°C 67% Calm Calm -- 29.98 in1015.2 mb - 0.00 in0.0 mm 0.00 in0.0 mm
04:15 PM 86.5°F30.3°C 71.5°F21.9°C 61% Calm Calm -- 29.98 in1015.2 mb - 0.00 in0.0 mm 0.00 in0.0 mm
04:30 PM 85.7°F29.8°C 73.5°F23.1°C 67% Calm Calm 1.2 mph1.9 kmh 29.98 in1015.2 mb - 0.00 in0.0 mm 0.00 in0.0 mm
04:45 PM 83.9°F28.8°C 73.5°F23.1°C 71% Calm Calm -- 29.98 in1015.2 mb - 0.00 in0.0 mm 0.00 in0.0 mm
05:00 PM 82.9°F28.3°C 72.1°F22.3°C 70% Calm Calm -- 29.98 in1015.2 mb - 0.00 in0.0 mm 0.00 in0.0 mm
05:30 PM 73.5°F23.1°C 69.0°F20.6°C 86% 1.2 mph N1.9 kmh N 2.3 mph3.7 kmh 30.03 in1016.9 mb - 0.05 in1.3 mm 0.06 in1.5 mm
05:45 PM 71.1°F21.7°C 69.3°F20.7°C 94% 1.2 mph 1.9 kmh 2.3 mph3.7 kmh 30.04 in1017.3 mb - 0.13 in3.3 mm 0.13 in3.3 mm
06:00 PM 70.1°F21.2°C 68.6°F20.3°C 95% Calm Calm 1.2 mph1.9 kmh 30.06 in1017.9 mb - 0.13 in3.3 mm 0.13 in3.3 mm
06:15 PM 69.8°F21.0°C 68.6°F20.3°C 96% 1.2 mph 1.9 kmh 2.3 mph3.7 kmh 30.06 in1017.9 mb - 0.13 in3.3 mm 0.13 in3.3 mm
06:30 PM 70.0°F21.1°C 68.8°F20.4°C 96% Calm Calm 2.3 mph3.7 kmh 30.07 in1018.3 mb - 0.10 in2.5 mm 0.14 in3.6 mm
06:45 PM 70.1°F21.2°C 68.9°F20.5°C 96% Calm Calm -- 30.07 in1018.3 mb - 0.01 in0.3 mm 0.14 in3.6 mm
07:00 PM 69.9°F21.1°C 68.7°F20.4°C 96% Calm Calm -- 30.08 in1018.6 mb - 0.02 in0.5 mm 0.15 in3.8 mm
07:15 PM 69.5°F20.8°C 68.3°F20.2°C 96% Calm Calm -- 30.08 in1018.6 mb - 0.02 in0.5 mm 0.15 in3.8 mm
07:30 PM 69.6°F20.9°C 68.7°F20.4°C 97% Calm Calm -- 30.08 in1018.6 mb - 0.01 in0.3 mm 0.15 in3.8 mm
07:45 PM 69.7°F20.9°C 68.8°F20.4°C 97% Calm Calm 1.2 mph1.9 kmh 30.07 in1018.3 mb - 0.01 in0.3 mm 0.15 in3.8 mm
08:00 PM 69.3°F20.7°C 68.4°F20.2°C 97% Calm Calm -- 30.07 in1018.3 mb - 0.00 in0.0 mm 0.15 in3.8 mm
08:15 PM 69.1°F20.6°C 68.2°F20.1°C 97% Calm Calm -- 30.06 in1017.9 mb - 0.00 in0.0 mm 0.15 in3.8 mm
08:30 PM 68.9°F20.5°C 68.0°F20.0°C 97% Calm Calm -- 30.08 in1018.6 mb - 0.00 in0.0 mm 0.15 in3.8 mm
08:45 PM 68.6°F20.3°C 67.7°F19.8°C 97% Calm Calm -- 30.09 in1019.0 mb - 0.00 in0.0 mm 0.15 in3.8 mm
09:00 PM 68.4°F20.2°C 67.5°F19.7°C 97% Calm Calm -- 30.09 in1019.0 mb - 0.00 in0.0 mm 0.15 in3.8 mm
09:15 PM 68.4°F20.2°C 67.5°F19.7°C 97% Calm Calm -- 30.09 in1019.0 mb - 0.00 in0.0 mm 0.15 in3.8 mm
09:30 PM 68.2°F20.1°C 67.3°F19.6°C 97% Calm Calm -- 30.09 in1019.0 mb - 0.00 in0.0 mm 0.15 in3.8 mm
09:45 PM 68.0°F20.0°C 67.1°F19.5°C 97% Calm Calm -- 30.08 in1018.6 mb - 0.00 in0.0 mm 0.15 in3.8 mm
10:00 PM 67.9°F19.9°C 67.0°F19.4°C 97% Calm Calm -- 30.07 in1018.3 mb - 0.00 in0.0 mm 0.15 in3.8 mm
10:15 PM 68.0°F20.0°C 67.1°F19.5°C 97% Calm Calm -- 30.07 in1018.3 mb - 0.00 in0.0 mm 0.15 in3.8 mm
10:30 PM 68.1°F20.1°C 67.5°F19.7°C 98% Calm Calm -- 30.07 in1018.3 mb - 0.00 in0.0 mm 0.15 in3.8 mm
10:45 PM 68.1°F20.1°C 67.5°F19.7°C 98% Calm Calm -- 30.08 in1018.6 mb - 0.00 in0.0 mm 0.15 in3.8 mm
11:00 PM 68.1°F20.1°C 67.6°F19.8°C 98% Calm Calm -- 30.08 in1018.6 mb - 0.00 in0.0 mm 0.61 in15.5 mm
11:15 PM 67.9°F19.9°C 67.4°F19.7°C 98% Calm Calm -- 30.07 in1018.3 mb - 0.00 in0.0 mm 0.61 in15.5 mm
11:30 PM 68.0°F20.0°C 67.4°F19.7°C 98% Calm Calm -- 30.08 in1018.6 mb - 0.00 in0.0 mm 0.61 in15.5 mm
11:45 PM 68.1°F20.1°C 67.5°F19.7°C 98% Calm Calm -- 30.07 in1018.3 mb - 0.00 in0.0 mm 0.61 in15.5 mm